sensor_id;sensor_type;location;lat;lon;timestamp;temperature;humidity
70947;DHT22;58605;48.700;8.760;2023-02-20T00:01:52;9.00;94.00
70947;DHT22;58605;48.700;8.760;2023-02-20T00:04:18;8.90;93.70
70947;DHT22;58605;48.700;8.760;2023-02-20T00:06:44;9.00;93.70
70947;DHT22;58605;48.700;8.760;2023-02-20T00:09:10;9.00;93.60
70947;DHT22;58605;48.700;8.760;2023-02-20T00:11:36;9.00;93.60
70947;DHT22;58605;48.700;8.760;2023-02-20T00:14:03;9.00;93.70
70947;DHT22;58605;48.700;8.760;2023-02-20T00:16:29;9.00;94.00
70947;DHT22;58605;48.700;8.760;2023-02-20T00:18:56;9.00;93.70
70947;DHT22;58605;48.700;8.760;2023-02-20T00:21:22;9.00;94.30
70947;DHT22;58605;48.700;8.760;2023-02-20T00:23:48;9.00;94.90
70947;DHT22;58605;48.700;8.760;2023-02-20T00:26:14;9.00;94.90
70947;DHT22;58605;48.700;8.760;2023-02-20T00:28:42;9.00;95.80
70947;DHT22;58605;48.700;8.760;2023-02-20T00:31:11;8.80;96.80
70947;DHT22;58605;48.700;8.760;2023-02-20T00:33:38;8.90;96.80
70947;DHT22;58605;48.700;8.760;2023-02-20T00:36:06;8.90;97.20
70947;DHT22;58605;48.700;8.760;2023-02-20T00:38:32;8.90;97.10
70947;DHT22;58605;48.700;8.760;2023-02-20T00:40:58;9.00;96.20
70947;DHT22;58605;48.700;8.760;2023-02-20T00:43:24;9.20;94.30
70947;DHT22;58605;48.700;8.760;2023-02-20T00:45:50;9.20;93.70
70947;DHT22;58605;48.700;8.760;2023-02-20T00:48:16;9.00;94.90
70947;DHT22;58605;48.700;8.760;2023-02-20T00:50:42;9.00;96.00
70947;DHT22;58605;48.700;8.760;2023-02-20T00:53:09;9.10;94.70
70947;DHT22;58605;48.700;8.760;2023-02-20T00:55:35;9.00;93.70
70947;DHT22;58605;48.700;8.760;2023-02-20T00:58:01;9.10;93.10
70947;DHT22;58605;48.700;8.760;2023-02-20T01:00:29;9.10;92.50
70947;DHT22;58605;48.700;8.760;2023-02-20T01:02:55;9.10;92.40
70947;DHT22;58605;48.700;8.760;2023-02-20T01:05:21;9.20;92.10
70947;DHT22;58605;48.700;8.760;2023-02-20T01:07:48;9.20;91.90
70947;DHT22;58605;48.700;8.760;2023-02-20T01:10:15;9.10;92.10
70947;DHT22;58605;48.700;8.760;2023-02-20T01:12:41;9.20;92.60
70947;DHT22;58605;48.700;8.760;2023-02-20T01:15:35;9.20;92.90
70947;DHT22;58605;48.700;8.760;2023-02-20T01:18:07;9.20;93.20
70947;DHT22;58605;48.700;8.760;2023-02-20T01:20:33;9.30;92.50
70947;DHT22;58605;48.700;8.760;2023-02-20T01:22:59;9.40;91.50
70947;DHT22;58605;48.700;8.760;2023-02-20T01:25:25;9.40;91.90
70947;DHT22;58605;48.700;8.760;2023-02-20T01:27:51;9.30;93.00
70947;DHT22;58605;48.700;8.760;2023-02-20T01:30:18;9.10;93.70
70947;DHT22;58605;48.700;8.760;2023-02-20T01:32:45;9.20;93.80
70947;DHT22;58605;48.700;8.760;2023-02-20T01:35:11;9.30;93.60
70947;DHT22;58605;48.700;8.760;2023-02-20T01:37:37;9.30;93.80
70947;DHT22;58605;48.700;8.760;2023-02-20T01:40:05;9.30;93.80
70947;DHT22;58605;48.700;8.760;2023-02-20T01:42:33;9.30;94.00
70947;DHT22;58605;48.700;8.760;2023-02-20T01:45:17;9.40;94.00
70947;DHT22;58605;48.700;8.760;2023-02-20T01:47:45;9.30;93.80
70947;DHT22;58605;48.700;8.760;2023-02-20T01:50:12;9.20;94.10
70947;DHT22;58605;48.700;8.760;2023-02-20T01:52:39;9.20;94.20
70947;DHT22;58605;48.700;8.760;2023-02-20T01:55:08;9.10;94.70
70947;DHT22;58605;48.700;8.760;2023-02-20T01:57:39;8.90;95.30
70947;DHT22;58605;48.700;8.760;2023-02-20T02:00:08;8.90;95.50
70947;DHT22;58605;48.700;8.760;2023-02-20T02:02:45;8.90;95.40
70947;DHT22;58605;48.700;8.760;2023-02-20T02:05:13;8.80;95.40
70947;DHT22;58605;48.700;8.760;2023-02-20T02:07:40;8.80;95.90
70947;DHT22;58605;48.700;8.760;2023-02-20T02:10:08;8.70;96.20
70947;DHT22;58605;48.700;8.760;2023-02-20T02:12:35;8.70;96.20
70947;DHT22;58605;48.700;8.760;2023-02-20T02:15:01;8.80;96.30
70947;DHT22;58605;48.700;8.760;2023-02-20T02:17:55;8.90;95.80
70947;DHT22;58605;48.700;8.760;2023-02-20T02:26:52;9.00;95.40
70947;DHT22;58605;48.700;8.760;2023-02-20T02:29:44;9.00;95.50
70947;DHT22;58605;48.700;8.760;2023-02-20T02:32:31;8.90;95.70
70947;DHT22;58605;48.700;8.760;2023-02-20T02:38:16;8.60;96.50
70947;DHT22;58605;48.700;8.760;2023-02-20T02:40:49;8.60;97.00
70947;DHT22;58605;48.700;8.760;2023-02-20T02:43:21;8.60;96.90
70947;DHT22;58605;48.700;8.760;2023-02-20T02:45:52;8.60;97.00
70947;DHT22;58605;48.700;8.760;2023-02-20T02:48:23;8.60;97.40
70947;DHT22;58605;48.700;8.760;2023-02-20T02:50:53;8.60;97.10
70947;DHT22;58605;48.700;8.760;2023-02-20T02:53:20;8.60;96.80
70947;DHT22;58605;48.700;8.760;2023-02-20T02:55:47;8.50;97.10
70947;DHT22;58605;48.700;8.760;2023-02-20T02:58:13;8.60;97.20
70947;DHT22;58605;48.700;8.760;2023-02-20T03:00:44;8.60;97.30
70947;DHT22;58605;48.700;8.760;2023-02-20T03:03:15;8.50;97.10
70947;DHT22;58605;48.700;8.760;2023-02-20T03:05:45;8.60;97.20
70947;DHT22;58605;48.700;8.760;2023-02-20T03:08:20;8.50;97.50
70947;DHT22;58605;48.700;8.760;2023-02-20T03:10:58;8.60;97.20
70947;DHT22;58605;48.700;8.760;2023-02-20T03:13:27;8.50;97.40
70947;DHT22;58605;48.700;8.760;2023-02-20T03:16:14;8.40;97.20
70947;DHT22;58605;48.700;8.760;2023-02-20T03:18:40;8.50;97.40
70947;DHT22;58605;48.700;8.760;2023-02-20T03:21:13;8.50;97.40
70947;DHT22;58605;48.700;8.760;2023-02-20T03:23:45;8.60;97.20
70947;DHT22;58605;48.700;8.760;2023-02-20T03:26:14;8.60;96.80
70947;DHT22;58605;48.700;8.760;2023-02-20T03:28:45;8.60;97.10
70947;DHT22;58605;48.700;8.760;2023-02-20T03:31:15;8.50;96.60
70947;DHT22;58605;48.700;8.760;2023-02-20T03:33:45;8.50;97.10
70947;DHT22;58605;48.700;8.760;2023-02-20T03:36:35;8.40;96.20
70947;DHT22;58605;48.700;8.760;2023-02-20T03:39:24;8.40;96.00
70947;DHT22;58605;48.700;8.760;2023-02-20T03:42:12;8.40;96.40
70947;DHT22;58605;48.700;8.760;2023-02-20T03:44:59;8.40;95.60
70947;DHT22;58605;48.700;8.760;2023-02-20T03:47:27;8.40;95.90
70947;DHT22;58605;48.700;8.760;2023-02-20T03:49:54;8.40;95.50
70947;DHT22;58605;48.700;8.760;2023-02-20T03:52:21;8.50;95.40
70947;DHT22;58605;48.700;8.760;2023-02-20T03:54:49;8.60;95.90
70947;DHT22;58605;48.700;8.760;2023-02-20T03:57:18;8.60;95.30
70947;DHT22;58605;48.700;8.760;2023-02-20T03:59:48;8.60;94.80
70947;DHT22;58605;48.700;8.760;2023-02-20T04:02:18;8.60;94.70
70947;DHT22;58605;48.700;8.760;2023-02-20T04:04:47;8.60;94.60
70947;DHT22;58605;48.700;8.760;2023-02-20T04:07:18;8.80;94.00
70947;DHT22;58605;48.700;8.760;2023-02-20T04:09:46;8.60;93.70
70947;DHT22;58605;48.700;8.760;2023-02-20T04:12:17;8.60;93.60
70947;DHT22;58605;48.700;8.760;2023-02-20T04:14:46;8.50;93.70
70947;DHT22;58605;48.700;8.760;2023-02-20T04:17:19;8.50;93.90
70947;DHT22;58605;48.700;8.760;2023-02-20T04:19:46;8.40;93.90
70947;DHT22;58605;48.700;8.760;2023-02-20T04:22:17;8.40;93.70
70947;DHT22;58605;48.700;8.760;2023-02-20T04:24:48;8.30;93.70
70947;DHT22;58605;48.700;8.760;2023-02-20T04:27:19;8.30;93.70
70947;DHT22;58605;48.700;8.760;2023-02-20T04:29:45;8.20;93.60
70947;DHT22;58605;48.700;8.760;2023-02-20T04:32:11;8.20;93.90
70947;DHT22;58605;48.700;8.760;2023-02-20T04:34:37;8.30;94.00
70947;DHT22;58605;48.700;8.760;2023-02-20T04:37:07;8.30;93.80
70947;DHT22;58605;48.700;8.760;2023-02-20T04:39:33;8.30;93.80
70947;DHT22;58605;48.700;8.760;2023-02-20T04:41:59;8.30;93.70
70947;DHT22;58605;48.700;8.760;2023-02-20T04:44:27;8.30;93.60
70947;DHT22;58605;48.700;8.760;2023-02-20T04:46:56;8.40;93.60
70947;DHT22;58605;48.700;8.760;2023-02-20T04:49:23;8.50;91.50
70947;DHT22;58605;48.700;8.760;2023-02-20T04:51:49;8.40;91.30
70947;DHT22;58605;48.700;8.760;2023-02-20T04:54:15;8.30;91.00
70947;DHT22;58605;48.700;8.760;2023-02-20T04:56:41;8.00;91.10
70947;DHT22;58605;48.700;8.760;2023-02-20T04:59:07;7.80;91.50
70947;DHT22;58605;48.700;8.760;2023-02-20T05:01:34;7.80;91.80
70947;DHT22;58605;48.700;8.760;2023-02-20T05:04:00;7.80;92.30
70947;DHT22;58605;48.700;8.760;2023-02-20T05:06:26;7.80;92.40
70947;DHT22;58605;48.700;8.760;2023-02-20T05:08:52;7.90;93.10
70947;DHT22;58605;48.700;8.760;2023-02-20T05:11:18;8.00;92.60
70947;DHT22;58605;48.700;8.760;2023-02-20T05:13:44;7.90;92.00
70947;DHT22;58605;48.700;8.760;2023-02-20T05:16:10;7.70;91.50
70947;DHT22;58605;48.700;8.760;2023-02-20T05:18:39;7.60;91.90
70947;DHT22;58605;48.700;8.760;2023-02-20T05:21:06;7.60;91.90
70947;DHT22;58605;48.700;8.760;2023-02-20T05:23:50;7.40;92.00
70947;DHT22;58605;48.700;8.760;2023-02-20T05:26:18;7.10;92.10
70947;DHT22;58605;48.700;8.760;2023-02-20T05:28:44;7.00;92.60
70947;DHT22;58605;48.700;8.760;2023-02-20T05:31:10;6.90;92.90
70947;DHT22;58605;48.700;8.760;2023-02-20T05:33:36;6.80;93.30
70947;DHT22;58605;48.700;8.760;2023-02-20T05:36:05;6.80;94.20
70947;DHT22;58605;48.700;8.760;2023-02-20T05:38:31;6.80;94.70
70947;DHT22;58605;48.700;8.760;2023-02-20T05:40:57;6.80;94.80
70947;DHT22;58605;48.700;8.760;2023-02-20T05:43:23;7.00;95.10
70947;DHT22;58605;48.700;8.760;2023-02-20T05:45:49;7.10;94.80
70947;DHT22;58605;48.700;8.760;2023-02-20T05:48:16;7.20;94.70
70947;DHT22;58605;48.700;8.760;2023-02-20T05:50:42;7.10;94.40
70947;DHT22;58605;48.700;8.760;2023-02-20T05:53:09;7.20;94.90
70947;DHT22;58605;48.700;8.760;2023-02-20T05:55:35;7.10;94.00
70947;DHT22;58605;48.700;8.760;2023-02-20T05:58:01;7.00;94.00
70947;DHT22;58605;48.700;8.760;2023-02-20T06:00:27;6.90;94.40
70947;DHT22;58605;48.700;8.760;2023-02-20T06:02:53;6.70;94.90
70947;DHT22;58605;48.700;8.760;2023-02-20T06:05:19;6.70;94.90
70947;DHT22;58605;48.700;8.760;2023-02-20T06:07:45;6.70;94.90
70947;DHT22;58605;48.700;8.760;2023-02-20T06:10:14;6.70;94.70
70947;DHT22;58605;48.700;8.760;2023-02-20T06:12:40;6.60;94.90
70947;DHT22;58605;48.700;8.760;2023-02-20T06:15:07;6.20;93.40
70947;DHT22;58605;48.700;8.760;2023-02-20T06:17:33;5.90;95.10
70947;DHT22;58605;48.700;8.760;2023-02-20T06:19:59;5.70;97.40
70947;DHT22;58605;48.700;8.760;2023-02-20T06:22:27;5.50;96.00
70947;DHT22;58605;48.700;8.760;2023-02-20T06:24:53;5.10;96.80
70947;DHT22;58605;48.700;8.760;2023-02-20T06:27:21;5.00;98.50
70947;DHT22;58605;48.700;8.760;2023-02-20T06:29:47;4.80;99.90
70947;DHT22;58605;48.700;8.760;2023-02-20T06:32:13;4.90;99.90
70947;DHT22;58605;48.700;8.760;2023-02-20T06:34:39;4.60;99.90
70947;DHT22;58605;48.700;8.760;2023-02-20T06:37:05;4.40;99.90
70947;DHT22;58605;48.700;8.760;2023-02-20T06:39:32;4.30;99.90
70947;DHT22;58605;48.700;8.760;2023-02-20T06:41:58;4.30;99.90
70947;DHT22;58605;48.700;8.760;2023-02-20T06:44:25;4.20;99.90
70947;DHT22;58605;48.700;8.760;2023-02-20T06:46:51;4.30;99.90
70947;DHT22;58605;48.700;8.760;2023-02-20T06:49:17;4.30;99.90
70947;DHT22;58605;48.700;8.760;2023-02-20T06:51:43;4.10;99.90
70947;DHT22;58605;48.700;8.760;2023-02-20T06:54:10;4.00;99.90
70947;DHT22;58605;48.700;8.760;2023-02-20T06:56:37;4.00;99.90
70947;DHT22;58605;48.700;8.760;2023-02-20T06:59:05;3.90;99.90
70947;DHT22;58605;48.700;8.760;2023-02-20T07:01:38;3.80;99.90
70947;DHT22;58605;48.700;8.760;2023-02-20T07:04:12;3.80;99.90
70947;DHT22;58605;48.700;8.760;2023-02-20T07:06:39;3.90;99.90
70947;DHT22;58605;48.700;8.760;2023-02-20T07:09:06;3.80;99.90
70947;DHT22;58605;48.700;8.760;2023-02-20T07:11:32;4.10;99.90
70947;DHT22;58605;48.700;8.760;2023-02-20T07:13:58;4.10;99.90
70947;DHT22;58605;48.700;8.760;2023-02-20T07:16:24;4.00;99.90
70947;DHT22;58605;48.700;8.760;2023-02-20T07:18:52;3.90;99.90
70947;DHT22;58605;48.700;8.760;2023-02-20T07:21:18;4.00;99.90
70947;DHT22;58605;48.700;8.760;2023-02-20T07:23:44;4.10;99.90
70947;DHT22;58605;48.700;8.760;2023-02-20T07:26:17;4.20;99.90
70947;DHT22;58605;48.700;8.760;2023-02-20T07:28:43;4.30;99.90
70947;DHT22;58605;48.700;8.760;2023-02-20T07:31:09;4.30;99.90
70947;DHT22;58605;48.700;8.760;2023-02-20T07:33:35;4.30;99.90
70947;DHT22;58605;48.700;8.760;2023-02-20T07:36:05;4.50;99.90
70947;DHT22;58605;48.700;8.760;2023-02-20T07:38:31;4.60;99.90
70947;DHT22;58605;48.700;8.760;2023-02-20T07:40:57;4.90;99.90
70947;DHT22;58605;48.700;8.760;2023-02-20T07:43:23;5.20;99.90
70947;DHT22;58605;48.700;8.760;2023-02-20T07:45:49;5.50;99.90
70947;DHT22;58605;48.700;8.760;2023-02-20T07:48:15;5.80;99.90
70947;DHT22;58605;48.700;8.760;2023-02-20T07:50:41;6.10;99.90
70947;DHT22;58605;48.700;8.760;2023-02-20T07:53:08;6.40;99.90
70947;DHT22;58605;48.700;8.760;2023-02-20T07:55:35;6.60;99.90
70947;DHT22;58605;48.700;8.760;2023-02-20T07:58:01;6.80;99.90
70947;DHT22;58605;48.700;8.760;2023-02-20T08:00:27;7.10;99.90
70947;DHT22;58605;48.700;8.760;2023-02-20T08:02:53;7.30;99.90
70947;DHT22;58605;48.700;8.760;2023-02-20T08:05:19;7.40;99.90
70947;DHT22;58605;48.700;8.760;2023-02-20T08:07:45;7.50;99.90
70947;DHT22;58605;48.700;8.760;2023-02-20T08:10:15;7.60;99.90
70947;DHT22;58605;48.700;8.760;2023-02-20T08:12:41;7.70;99.90
70947;DHT22;58605;48.700;8.760;2023-02-20T08:15:08;7.70;99.90
70947;DHT22;58605;48.700;8.760;2023-02-20T08:17:37;7.80;99.90
70947;DHT22;58605;48.700;8.760;2023-02-20T08:20:04;7.90;99.90
70947;DHT22;58605;48.700;8.760;2023-02-20T08:22:31;8.00;99.90
70947;DHT22;58605;48.700;8.760;2023-02-20T08:24:57;8.00;99.90
70947;DHT22;58605;48.700;8.760;2023-02-20T08:27:25;8.00;99.90
70947;DHT22;58605;48.700;8.760;2023-02-20T08:29:52;8.10;99.90
70947;DHT22;58605;48.700;8.760;2023-02-20T08:32:18;8.10;99.90
70947;DHT22;58605;48.700;8.760;2023-02-20T08:34:44;8.20;99.50
70947;DHT22;58605;48.700;8.760;2023-02-20T08:37:10;8.20;98.90
70947;DHT22;58605;48.700;8.760;2023-02-20T08:39:36;8.30;98.30
70947;DHT22;58605;48.700;8.760;2023-02-20T08:42:02;8.30;97.80
70947;DHT22;58605;48.700;8.760;2023-02-20T08:44:30;8.20;97.70
70947;DHT22;58605;48.700;8.760;2023-02-20T08:46:56;8.20;98.00
70947;DHT22;58605;48.700;8.760;2023-02-20T08:49:22;8.20;97.50
70947;DHT22;58605;48.700;8.760;2023-02-20T08:51:52;8.30;96.10
70947;DHT22;58605;48.700;8.760;2023-02-20T08:54:18;8.20;96.30
70947;DHT22;58605;48.700;8.760;2023-02-20T08:56:44;8.30;96.20
70947;DHT22;58605;48.700;8.760;2023-02-20T08:59:10;8.30;96.00
70947;DHT22;58605;48.700;8.760;2023-02-20T09:01:40;8.30;95.40
70947;DHT22;58605;48.700;8.760;2023-02-20T09:04:06;8.40;95.40
70947;DHT22;58605;48.700;8.760;2023-02-20T09:06:33;8.40;95.30
70947;DHT22;58605;48.700;8.760;2023-02-20T09:08:59;8.40;95.30
70947;DHT22;58605;48.700;8.760;2023-02-20T09:11:25;8.40;95.20
70947;DHT22;58605;48.700;8.760;2023-02-20T09:13:51;8.40;95.40
70947;DHT22;58605;48.700;8.760;2023-02-20T09:16:20;8.40;95.70
70947;DHT22;58605;48.700;8.760;2023-02-20T09:18:48;8.40;95.80
70947;DHT22;58605;48.700;8.760;2023-02-20T09:21:18;8.40;96.20
70947;DHT22;58605;48.700;8.760;2023-02-20T09:23:44;8.40;96.10
70947;DHT22;58605;48.700;8.760;2023-02-20T09:26:11;8.50;96.40
70947;DHT22;58605;48.700;8.760;2023-02-20T09:28:37;8.40;96.10
70947;DHT22;58605;48.700;8.760;2023-02-20T09:31:05;8.50;95.80
70947;DHT22;58605;48.700;8.760;2023-02-20T09:33:31;8.50;95.80
70947;DHT22;58605;48.700;8.760;2023-02-20T09:35:58;8.60;96.20
70947;DHT22;58605;48.700;8.760;2023-02-20T09:38:24;8.50;95.90
70947;DHT22;58605;48.700;8.760;2023-02-20T09:40:54;8.50;95.90
70947;DHT22;58605;48.700;8.760;2023-02-20T09:43:40;8.70;95.20
70947;DHT22;58605;48.700;8.760;2023-02-20T09:46:13;8.60;95.30
70947;DHT22;58605;48.700;8.760;2023-02-20T09:48:49;8.80;95.10
70947;DHT22;58605;48.700;8.760;2023-02-20T09:51:20;8.80;95.20
70947;DHT22;58605;48.700;8.760;2023-02-20T09:53:51;8.70;94.80
70947;DHT22;58605;48.700;8.760;2023-02-20T09:56:21;8.70;94.80
70947;DHT22;58605;48.700;8.760;2023-02-20T09:58:51;8.80;94.60
70947;DHT22;58605;48.700;8.760;2023-02-20T10:01:21;8.90;94.30
70947;DHT22;58605;48.700;8.760;2023-02-20T10:03:53;8.90;94.50
70947;DHT22;58605;48.700;8.760;2023-02-20T10:06:23;8.90;94.10
70947;DHT22;58605;48.700;8.760;2023-02-20T10:08:51;8.80;94.20
70947;DHT22;58605;48.700;8.760;2023-02-20T10:11:40;8.80;94.50
70947;DHT22;58605;48.700;8.760;2023-02-20T10:14:24;8.80;95.10
70947;DHT22;58605;48.700;8.760;2023-02-20T10:17:08;8.70;95.20
70947;DHT22;58605;48.700;8.760;2023-02-20T10:19:40;8.60;96.20
70947;DHT22;58605;48.700;8.760;2023-02-20T10:22:13;8.60;95.00
70947;DHT22;58605;48.700;8.760;2023-02-20T10:24:53;8.60;96.30
70947;DHT22;58605;48.700;8.760;2023-02-20T10:27:34;8.60;95.10
70947;DHT22;58605;48.700;8.760;2023-02-20T10:30:10;8.60;94.50
70947;DHT22;58605;48.700;8.760;2023-02-20T10:32:41;8.60;95.00
70947;DHT22;58605;48.700;8.760;2023-02-20T10:35:10;8.60;94.20
70947;DHT22;58605;48.700;8.760;2023-02-20T10:37:41;8.70;93.80
70947;DHT22;58605;48.700;8.760;2023-02-20T10:40:15;8.70;92.70
70947;DHT22;58605;48.700;8.760;2023-02-20T10:42:46;8.70;93.50
70947;DHT22;58605;48.700;8.760;2023-02-20T10:45:21;8.80;92.80
70947;DHT22;58605;48.700;8.760;2023-02-20T10:47:57;8.90;91.90
70947;DHT22;58605;48.700;8.760;2023-02-20T10:50:28;8.90;92.20
70947;DHT22;58605;48.700;8.760;2023-02-20T10:53:02;8.80;92.20
70947;DHT22;58605;48.700;8.760;2023-02-20T10:55:34;9.00;90.70
70947;DHT22;58605;48.700;8.760;2023-02-20T10:58:05;9.10;90.50
70947;DHT22;58605;48.700;8.760;2023-02-20T11:00:37;9.20;89.80
70947;DHT22;58605;48.700;8.760;2023-02-20T11:03:06;9.30;89.70
70947;DHT22;58605;48.700;8.760;2023-02-20T11:05:39;9.40;88.50
70947;DHT22;58605;48.700;8.760;2023-02-20T11:08:07;9.30;89.20
70947;DHT22;58605;48.700;8.760;2023-02-20T11:10:33;9.20;90.00
70947;DHT22;58605;48.700;8.760;2023-02-20T11:13:00;9.10;90.10
70947;DHT22;58605;48.700;8.760;2023-02-20T11:15:29;9.00;90.50
70947;DHT22;58605;48.700;8.760;2023-02-20T11:17:57;9.00;90.30
70947;DHT22;58605;48.700;8.760;2023-02-20T11:20:41;8.90;90.50
70947;DHT22;58605;48.700;8.760;2023-02-20T11:23:09;9.00;90.10
70947;DHT22;58605;48.700;8.760;2023-02-20T11:25:37;9.00;90.40
70947;DHT22;58605;48.700;8.760;2023-02-20T11:28:09;8.90;90.00
70947;DHT22;58605;48.700;8.760;2023-02-20T11:30:39;8.90;90.40
70947;DHT22;58605;48.700;8.760;2023-02-20T11:33:11;8.90;90.80
70947;DHT22;58605;48.700;8.760;2023-02-20T11:35:39;9.00;89.90
70947;DHT22;58605;48.700;8.760;2023-02-20T11:38:30;9.00;89.90
70947;DHT22;58605;48.700;8.760;2023-02-20T11:41:30;9.00;88.70
70947;DHT22;58605;48.700;8.760;2023-02-20T11:47:18;9.00;88.70
70947;DHT22;58605;48.700;8.760;2023-02-20T11:49:46;9.00;88.80
70947;DHT22;58605;48.700;8.760;2023-02-20T11:52:16;9.10;88.20
70947;DHT22;58605;48.700;8.760;2023-02-20T11:54:44;9.10;88.10
70947;DHT22;58605;48.700;8.760;2023-02-20T11:57:23;9.10;87.60
70947;DHT22;58605;48.700;8.760;2023-02-20T11:59:51;9.10;88.10
70947;DHT22;58605;48.700;8.760;2023-02-20T12:02:32;9.10;88.90
70947;DHT22;58605;48.700;8.760;2023-02-20T12:05:10;9.10;88.00
70947;DHT22;58605;48.700;8.760;2023-02-20T12:07:39;9.10;88.00
70947;DHT22;58605;48.700;8.760;2023-02-20T12:10:20;9.10;88.10
70947;DHT22;58605;48.700;8.760;2023-02-20T12:12:48;9.10;88.00
70947;DHT22;58605;48.700;8.760;2023-02-20T12:15:16;9.10;88.40
70947;DHT22;58605;48.700;8.760;2023-02-20T12:17:54;9.20;86.60
70947;DHT22;58605;48.700;8.760;2023-02-20T12:20:24;9.20;87.90
70947;DHT22;58605;48.700;8.760;2023-02-20T12:22:56;9.20;86.90
70947;DHT22;58605;48.700;8.760;2023-02-20T12:25:32;9.20;86.50
70947;DHT22;58605;48.700;8.760;2023-02-20T12:28:10;9.20;87.00
70947;DHT22;58605;48.700;8.760;2023-02-20T12:30:50;9.20;86.30
70947;DHT22;58605;48.700;8.760;2023-02-20T12:33:43;9.40;84.60
70947;DHT22;58605;48.700;8.760;2023-02-20T12:36:26;9.40;84.60
70947;DHT22;58605;48.700;8.760;2023-02-20T12:38:57;9.30;84.70
70947;DHT22;58605;48.700;8.760;2023-02-20T12:41:37;9.20;85.10
70947;DHT22;58605;48.700;8.760;2023-02-20T12:44:25;9.20;84.80
70947;DHT22;58605;48.700;8.760;2023-02-20T12:47:00;9.20;85.00
70947;DHT22;58605;48.700;8.760;2023-02-20T12:49:53;9.30;83.80
70947;DHT22;58605;48.700;8.760;2023-02-20T12:52:44;9.40;83.30
70947;DHT22;58605;48.700;8.760;2023-02-20T12:55:21;9.30;83.60
70947;DHT22;58605;48.700;8.760;2023-02-20T12:58:02;9.30;82.80
70947;DHT22;58605;48.700;8.760;2023-02-20T13:00:37;9.30;82.60
70947;DHT22;58605;48.700;8.760;2023-02-20T13:03:09;9.30;83.40
70947;DHT22;58605;48.700;8.760;2023-02-20T13:05:38;9.30;83.00
70947;DHT22;58605;48.700;8.760;2023-02-20T13:08:12;9.30;82.30
70947;DHT22;58605;48.700;8.760;2023-02-20T13:10:47;9.30;82.10
70947;DHT22;58605;48.700;8.760;2023-02-20T13:13:17;9.30;82.50
70947;DHT22;58605;48.700;8.760;2023-02-20T13:15:49;9.40;82.10
70947;DHT22;58605;48.700;8.760;2023-02-20T13:18:23;9.40;81.70
70947;DHT22;58605;48.700;8.760;2023-02-20T13:20:54;9.40;81.80
70947;DHT22;58605;48.700;8.760;2023-02-20T13:23:29;9.50;80.90
70947;DHT22;58605;48.700;8.760;2023-02-20T13:25:56;9.60;80.70
70947;DHT22;58605;48.700;8.760;2023-02-20T13:28:39;9.60;80.60
70947;DHT22;58605;48.700;8.760;2023-02-20T13:31:16;9.60;80.10
70947;DHT22;58605;48.700;8.760;2023-02-20T13:33:44;9.50;80.40
70947;DHT22;58605;48.700;8.760;2023-02-20T13:36:38;9.60;78.80
70947;DHT22;58605;48.700;8.760;2023-02-20T13:39:40;9.60;79.70
70947;DHT22;58605;48.700;8.760;2023-02-20T13:42:30;9.80;76.50
70947;DHT22;58605;48.700;8.760;2023-02-20T13:44:58;9.90;75.80
70947;DHT22;58605;48.700;8.760;2023-02-20T13:47:36;10.50;73.30
70947;DHT22;58605;48.700;8.760;2023-02-20T13:50:28;10.20;73.90
70947;DHT22;58605;48.700;8.760;2023-02-20T13:52:55;10.00;73.80
70947;DHT22;58605;48.700;8.760;2023-02-20T13:55:25;10.10;72.30
70947;DHT22;58605;48.700;8.760;2023-02-20T13:57:53;10.10;72.00
70947;DHT22;58605;48.700;8.760;2023-02-20T14:00:27;10.10;73.00
70947;DHT22;58605;48.700;8.760;2023-02-20T14:02:54;10.10;71.50
70947;DHT22;58605;48.700;8.760;2023-02-20T14:05:22;10.20;70.70
70947;DHT22;58605;48.700;8.760;2023-02-20T14:07:48;10.50;68.10
70947;DHT22;58605;48.700;8.760;2023-02-20T14:10:17;10.80;65.50
70947;DHT22;58605;48.700;8.760;2023-02-20T14:12:44;11.00;66.10
70947;DHT22;58605;48.700;8.760;2023-02-20T14:15:10;11.30;65.00
70947;DHT22;58605;48.700;8.760;2023-02-20T14:17:41;11.10;66.30
70947;DHT22;58605;48.700;8.760;2023-02-20T14:20:18;10.90;67.30
70947;DHT22;58605;48.700;8.760;2023-02-20T14:22:44;10.50;68.40
70947;DHT22;58605;48.700;8.760;2023-02-20T14:25:23;10.30;69.40
70947;DHT22;58605;48.700;8.760;2023-02-20T14:27:49;10.00;70.60
70947;DHT22;58605;48.700;8.760;2023-02-20T14:30:18;9.90;71.70
70947;DHT22;58605;48.700;8.760;2023-02-20T14:32:48;10.00;70.10
70947;DHT22;58605;48.700;8.760;2023-02-20T14:35:42;10.00;70.00
70947;DHT22;58605;48.700;8.760;2023-02-20T14:38:19;10.10;69.40
70947;DHT22;58605;48.700;8.760;2023-02-20T14:40:46;10.10;69.80
70947;DHT22;58605;48.700;8.760;2023-02-20T14:43:15;9.90;71.80
70947;DHT22;58605;48.700;8.760;2023-02-20T14:45:43;10.00;69.40
70947;DHT22;58605;48.700;8.760;2023-02-20T14:48:22;10.00;69.90
70947;DHT22;58605;48.700;8.760;2023-02-20T14:51:02;10.00;70.50
70947;DHT22;58605;48.700;8.760;2023-02-20T14:53:30;9.80;72.50
70947;DHT22;58605;48.700;8.760;2023-02-20T14:55:55;9.80;71.90
70947;DHT22;58605;48.700;8.760;2023-02-20T14:58:22;9.80;71.90
70947;DHT22;58605;48.700;8.760;2023-02-20T15:00:48;10.10;67.70
70947;DHT22;58605;48.700;8.760;2023-02-20T15:03:21;10.20;67.50
70947;DHT22;58605;48.700;8.760;2023-02-20T15:05:48;10.20;68.40
70947;DHT22;58605;48.700;8.760;2023-02-20T15:08:20;10.00;69.00
70947;DHT22;58605;48.700;8.760;2023-02-20T15:10:47;10.10;68.70
70947;DHT22;58605;48.700;8.760;2023-02-20T15:13:15;10.00;68.00
70947;DHT22;58605;48.700;8.760;2023-02-20T15:15:44;10.10;69.40
70947;DHT22;58605;48.700;8.760;2023-02-20T15:18:13;10.00;69.60
70947;DHT22;58605;48.700;8.760;2023-02-20T15:20:44;10.00;68.00
70947;DHT22;58605;48.700;8.760;2023-02-20T15:23:22;10.10;66.90
70947;DHT22;58605;48.700;8.760;2023-02-20T15:25:49;10.10;67.30
70947;DHT22;58605;48.700;8.760;2023-02-20T15:28:27;10.10;67.70
70947;DHT22;58605;48.700;8.760;2023-02-20T15:31:05;10.00;66.70
70947;DHT22;58605;48.700;8.760;2023-02-20T15:33:34;10.00;68.50
70947;DHT22;58605;48.700;8.760;2023-02-20T15:36:02;9.90;70.00
70947;DHT22;58605;48.700;8.760;2023-02-20T15:38:30;9.90;69.70
70947;DHT22;58605;48.700;8.760;2023-02-20T15:40:58;9.90;69.60
70947;DHT22;58605;48.700;8.760;2023-02-20T15:43:25;10.10;67.20
70947;DHT22;58605;48.700;8.760;2023-02-20T15:45:51;9.90;69.50
70947;DHT22;58605;48.700;8.760;2023-02-20T15:48:17;9.90;69.30
70947;DHT22;58605;48.700;8.760;2023-02-20T15:50:43;9.90;68.90
70947;DHT22;58605;48.700;8.760;2023-02-20T15:53:14;10.10;65.80
70947;DHT22;58605;48.700;8.760;2023-02-20T15:55:40;10.20;66.40
70947;DHT22;58605;48.700;8.760;2023-02-20T15:58:19;10.20;65.80
70947;DHT22;58605;48.700;8.760;2023-02-20T16:00:46;10.10;65.50
70947;DHT22;58605;48.700;8.760;2023-02-20T16:03:12;10.30;64.60
70947;DHT22;58605;48.700;8.760;2023-02-20T16:05:38;10.20;65.60
70947;DHT22;58605;48.700;8.760;2023-02-20T16:08:04;10.20;64.70
70947;DHT22;58605;48.700;8.760;2023-02-20T16:10:31;10.20;66.30
70947;DHT22;58605;48.700;8.760;2023-02-20T16:12:58;10.10;65.30
70947;DHT22;58605;48.700;8.760;2023-02-20T16:15:25;10.20;64.50
70947;DHT22;58605;48.700;8.760;2023-02-20T16:17:51;10.20;66.40